sensor_id;sensor_type;location;lat;lon;timestamp;P1;durP1;ratioP1;P2;durP2;ratioP2
4200;SDS011;2114;50.398;8.814;2022-09-29T00:03:24;0.80;;;0.80;;
4200;SDS011;2114;50.398;8.814;2022-09-29T00:08:25;0.80;;;0.80;;
4200;SDS011;2114;50.398;8.814;2022-09-29T00:13:27;0.90;;;0.90;;
4200;SDS011;2114;50.398;8.814;2022-09-29T00:18:28;0.83;;;0.83;;
4200;SDS011;2114;50.398;8.814;2022-09-29T00:23:30;0.80;;;0.80;;
4200;SDS011;2114;50.398;8.814;2022-09-29T00:28:32;0.70;;;0.70;;
4200;SDS011;2114;50.398;8.814;2022-09-29T00:33:34;2.03;;;1.30;;
4200;SDS011;2114;50.398;8.814;2022-09-29T00:38:36;0.70;;;0.70;;
4200;SDS011;2114;50.398;8.814;2022-09-29T00:48:49;0.77;;;0.77;;
4200;SDS011;2114;50.398;8.814;2022-09-29T00:53:51;0.80;;;0.80;;
4200;SDS011;2114;50.398;8.814;2022-09-29T00:58:53;0.80;;;0.80;;
4200;SDS011;2114;50.398;8.814;2022-09-29T01:04:02;0.80;;;0.80;;
4200;SDS011;2114;50.398;8.814;2022-09-29T01:09:14;0.80;;;0.80;;
4200;SDS011;2114;50.398;8.814;2022-09-29T01:14:17;0.90;;;0.80;;
4200;SDS011;2114;50.398;8.814;2022-09-29T01:19:26;0.77;;;0.77;;
4200;SDS011;2114;50.398;8.814;2022-09-29T01:46:17;1.00;;;1.00;;
4200;SDS011;2114;50.398;8.814;2022-09-29T01:51:30;0.80;;;0.80;;
4200;SDS011;2114;50.398;8.814;2022-09-29T01:56:39;1.20;;;1.20;;
4200;SDS011;2114;50.398;8.814;2022-09-29T02:01:44;0.90;;;0.90;;
4200;SDS011;2114;50.398;8.814;2022-09-29T02:06:56;0.80;;;0.80;;
4200;SDS011;2114;50.398;8.814;2022-09-29T02:12:13;0.80;;;0.80;;
4200;SDS011;2114;50.398;8.814;2022-09-29T02:17:23;0.70;;;0.70;;
4200;SDS011;2114;50.398;8.814;2022-09-29T02:22:29;0.70;;;0.70;;
4200;SDS011;2114;50.398;8.814;2022-09-29T02:27:29;0.90;;;0.90;;
4200;SDS011;2114;50.398;8.814;2022-09-29T02:32:33;1.00;;;1.00;;
4200;SDS011;2114;50.398;8.814;2022-09-29T02:43:13;1.10;;;1.10;;
4200;SDS011;2114;50.398;8.814;2022-09-29T02:54:13;0.90;;;0.90;;
4200;SDS011;2114;50.398;8.814;2022-09-29T02:59:44;1.40;;;1.30;;
4200;SDS011;2114;50.398;8.814;2022-09-29T03:05:09;0.90;;;0.90;;
4200;SDS011;2114;50.398;8.814;2022-09-29T03:10:13;1.27;;;1.17;;
4200;SDS011;2114;50.398;8.814;2022-09-29T03:15:15;0.80;;;0.80;;
4200;SDS011;2114;50.398;8.814;2022-09-29T03:20:17;1.80;;;1.20;;
4200;SDS011;2114;50.398;8.814;2022-09-29T03:25:17;0.97;;;0.97;;
4200;SDS011;2114;50.398;8.814;2022-09-29T03:30:18;0.80;;;0.80;;
4200;SDS011;2114;50.398;8.814;2022-09-29T03:35:18;0.97;;;0.97;;
4200;SDS011;2114;50.398;8.814;2022-09-29T03:40:19;0.80;;;0.80;;
4200;SDS011;2114;50.398;8.814;2022-09-29T03:45:20;0.70;;;0.70;;
4200;SDS011;2114;50.398;8.814;2022-09-29T03:50:20;1.23;;;1.13;;
4200;SDS011;2114;50.398;8.814;2022-09-29T03:55:21;1.90;;;1.50;;
4200;SDS011;2114;50.398;8.814;2022-09-29T04:00:21;3.50;;;1.80;;
4200;SDS011;2114;50.398;8.814;2022-09-29T04:05:22;1.70;;;1.60;;
4200;SDS011;2114;50.398;8.814;2022-09-29T04:10:23;1.60;;;1.50;;
4200;SDS011;2114;50.398;8.814;2022-09-29T04:15:23;0.93;;;0.93;;
4200;SDS011;2114;50.398;8.814;2022-09-29T04:20:24;1.37;;;1.27;;
4200;SDS011;2114;50.398;8.814;2022-09-29T04:25:25;1.23;;;0.97;;
4200;SDS011;2114;50.398;8.814;2022-09-29T04:30:27;1.23;;;1.20;;
4200;SDS011;2114;50.398;8.814;2022-09-29T04:35:27;1.17;;;1.10;;
4200;SDS011;2114;50.398;8.814;2022-09-29T04:40:28;1.33;;;1.23;;
4200;SDS011;2114;50.398;8.814;2022-09-29T04:45:29;1.40;;;1.20;;
4200;SDS011;2114;50.398;8.814;2022-09-29T04:50:30;1.00;;;0.93;;
4200;SDS011;2114;50.398;8.814;2022-09-29T04:55:30;1.33;;;1.23;;
4200;SDS011;2114;50.398;8.814;2022-09-29T05:00:31;1.27;;;1.17;;
4200;SDS011;2114;50.398;8.814;2022-09-29T05:05:32;1.20;;;1.20;;
4200;SDS011;2114;50.398;8.814;2022-09-29T05:10:32;1.30;;;1.23;;
4200;SDS011;2114;50.398;8.814;2022-09-29T05:15:33;0.97;;;0.97;;
4200;SDS011;2114;50.398;8.814;2022-09-29T05:20:34;0.80;;;0.80;;
4200;SDS011;2114;50.398;8.814;2022-09-29T05:25:35;1.00;;;1.00;;
4200;SDS011;2114;50.398;8.814;2022-09-29T05:30:36;1.17;;;1.10;;
4200;SDS011;2114;50.398;8.814;2022-09-29T05:35:37;1.13;;;1.07;;
4200;SDS011;2114;50.398;8.814;2022-09-29T05:40:38;2.10;;;1.90;;
4200;SDS011;2114;50.398;8.814;2022-09-29T05:45:39;1.17;;;1.07;;
4200;SDS011;2114;50.398;8.814;2022-09-29T05:50:39;1.03;;;1.03;;
4200;SDS011;2114;50.398;8.814;2022-09-29T05:55:42;1.10;;;1.10;;
4200;SDS011;2114;50.398;8.814;2022-09-29T06:00:42;1.30;;;1.20;;
4200;SDS011;2114;50.398;8.814;2022-09-29T06:05:43;1.83;;;1.60;;
4200;SDS011;2114;50.398;8.814;2022-09-29T06:10:43;2.30;;;2.10;;
4200;SDS011;2114;50.398;8.814;2022-09-29T06:15:44;0.90;;;0.90;;
4200;SDS011;2114;50.398;8.814;2022-09-29T06:20:45;3.30;;;1.63;;
4200;SDS011;2114;50.398;8.814;2022-09-29T06:25:46;0.80;;;0.80;;
4200;SDS011;2114;50.398;8.814;2022-09-29T06:30:47;4.27;;;2.40;;
4200;SDS011;2114;50.398;8.814;2022-09-29T06:35:47;1.00;;;1.00;;
4200;SDS011;2114;50.398;8.814;2022-09-29T06:41:07;0.80;;;0.80;;
4200;SDS011;2114;50.398;8.814;2022-09-29T06:46:08;1.13;;;1.13;;
4200;SDS011;2114;50.398;8.814;2022-09-29T06:51:08;4.20;;;2.33;;
4200;SDS011;2114;50.398;8.814;2022-09-29T06:56:09;1.60;;;1.50;;
4200;SDS011;2114;50.398;8.814;2022-09-29T07:01:10;3.83;;;1.70;;
4200;SDS011;2114;50.398;8.814;2022-09-29T07:06:11;2.80;;;1.67;;
4200;SDS011;2114;50.398;8.814;2022-09-29T07:11:12;1.90;;;1.80;;
4200;SDS011;2114;50.398;8.814;2022-09-29T07:16:13;1.73;;;1.60;;
4200;SDS011;2114;50.398;8.814;2022-09-29T07:21:14;3.17;;;1.70;;
4200;SDS011;2114;50.398;8.814;2022-09-29T07:26:16;2.50;;;1.80;;
4200;SDS011;2114;50.398;8.814;2022-09-29T07:31:18;7.13;;;1.50;;
4200;SDS011;2114;50.398;8.814;2022-09-29T07:36:20;3.53;;;2.20;;
4200;SDS011;2114;50.398;8.814;2022-09-29T07:41:22;1.70;;;1.60;;
4200;SDS011;2114;50.398;8.814;2022-09-29T07:46:22;9.17;;;1.63;;
4200;SDS011;2114;50.398;8.814;2022-09-29T07:51:23;1.20;;;1.17;;
4200;SDS011;2114;50.398;8.814;2022-09-29T07:56:24;1.33;;;1.23;;
4200;SDS011;2114;50.398;8.814;2022-09-29T08:01:24;2.57;;;1.80;;
4200;SDS011;2114;50.398;8.814;2022-09-29T08:06:25;5.30;;;1.73;;
4200;SDS011;2114;50.398;8.814;2022-09-29T08:11:26;6.40;;;2.80;;
4200;SDS011;2114;50.398;8.814;2022-09-29T08:16:27;3.83;;;2.40;;
4200;SDS011;2114;50.398;8.814;2022-09-29T08:21:28;2.20;;;2.03;;
4200;SDS011;2114;50.398;8.814;2022-09-29T08:26:31;7.73;;;2.40;;
4200;SDS011;2114;50.398;8.814;2022-09-29T08:31:34;2.50;;;1.93;;
4200;SDS011;2114;50.398;8.814;2022-09-29T08:36:36;5.90;;;2.10;;
4200;SDS011;2114;50.398;8.814;2022-09-29T08:41:53;5.23;;;3.70;;
4200;SDS011;2114;50.398;8.814;2022-09-29T08:52:27;3.30;;;2.10;;
4200;SDS011;2114;50.398;8.814;2022-09-29T08:57:30;2.80;;;1.90;;
4200;SDS011;2114;50.398;8.814;2022-09-29T09:23:41;4.00;;;3.13;;
4200;SDS011;2114;50.398;8.814;2022-09-29T09:28:52;6.37;;;3.53;;
4200;SDS011;2114;50.398;8.814;2022-09-29T09:34:12;2.70;;;2.10;;
4200;SDS011;2114;50.398;8.814;2022-09-29T09:39:21;2.20;;;2.10;;
4200;SDS011;2114;50.398;8.814;2022-09-29T09:44:51;4.20;;;2.93;;
4200;SDS011;2114;50.398;8.814;2022-09-29T09:49:57;3.97;;;3.20;;
4200;SDS011;2114;50.398;8.814;2022-09-29T09:55:18;9.93;;;2.73;;
4200;SDS011;2114;50.398;8.814;2022-09-29T10:05:25;5.87;;;4.57;;
4200;SDS011;2114;50.398;8.814;2022-09-29T10:10:33;4.47;;;3.07;;
4200;SDS011;2114;50.398;8.814;2022-09-29T10:15:42;3.60;;;2.40;;
4200;SDS011;2114;50.398;8.814;2022-09-29T10:20:51;4.20;;;3.03;;
4200;SDS011;2114;50.398;8.814;2022-09-29T10:30:57;4.00;;;2.57;;
4200;SDS011;2114;50.398;8.814;2022-09-29T10:36:03;3.80;;;2.77;;
4200;SDS011;2114;50.398;8.814;2022-09-29T10:41:07;3.87;;;3.17;;
4200;SDS011;2114;50.398;8.814;2022-09-29T10:52:32;3.97;;;3.10;;
4200;SDS011;2114;50.398;8.814;2022-09-29T10:57:19;3.20;;;2.63;;
4200;SDS011;2114;50.398;8.814;2022-09-29T11:02:25;2.43;;;1.97;;
4200;SDS011;2114;50.398;8.814;2022-09-29T11:07:30;3.00;;;2.30;;
4200;SDS011;2114;50.398;8.814;2022-09-29T11:12:33;5.60;;;2.70;;
4200;SDS011;2114;50.398;8.814;2022-09-29T11:17:38;4.50;;;2.20;;
4200;SDS011;2114;50.398;8.814;2022-09-29T11:22:52;1.70;;;1.60;;
4200;SDS011;2114;50.398;8.814;2022-09-29T12:00:12;1.83;;;1.73;;
4200;SDS011;2114;50.398;8.814;2022-09-29T12:05:22;2.90;;;2.20;;
4200;SDS011;2114;50.398;8.814;2022-09-29T12:10:31;2.60;;;2.40;;
4200;SDS011;2114;50.398;8.814;2022-09-29T12:15:59;1.80;;;1.70;;
4200;SDS011;2114;50.398;8.814;2022-09-29T12:21:07;1.60;;;1.20;;
4200;SDS011;2114;50.398;8.814;2022-09-29T12:26:13;2.33;;;2.23;;
4200;SDS011;2114;50.398;8.814;2022-09-29T12:31:23;2.30;;;2.10;;
4200;SDS011;2114;50.398;8.814;2022-09-29T12:36:45;2.10;;;1.60;;
4200;SDS011;2114;50.398;8.814;2022-09-29T12:41:59;6.47;;;2.10;;
4200;SDS011;2114;50.398;8.814;2022-09-29T12:47:21;3.33;;;2.40;;
4200;SDS011;2114;50.398;8.814;2022-09-29T12:52:27;1.90;;;1.30;;
4200;SDS011;2114;50.398;8.814;2022-09-29T12:57:36;1.27;;;1.20;;
4200;SDS011;2114;50.398;8.814;2022-09-29T13:18:45;1.00;;;1.00;;
4200;SDS011;2114;50.398;8.814;2022-09-29T13:24:00;1.00;;;0.90;;
4200;SDS011;2114;50.398;8.814;2022-09-29T13:29:16;0.90;;;0.90;;
4200;SDS011;2114;50.398;8.814;2022-09-29T13:34:33;1.23;;;0.97;;
4200;SDS011;2114;50.398;8.814;2022-09-29T13:39:36;1.27;;;1.17;;
4200;SDS011;2114;50.398;8.814;2022-09-29T13:44:40;1.23;;;1.13;;
4200;SDS011;2114;50.398;8.814;2022-09-29T13:49:42;1.00;;;1.00;;
4200;SDS011;2114;50.398;8.814;2022-09-29T13:54:42;0.80;;;0.80;;
4200;SDS011;2114;50.398;8.814;2022-09-29T13:59:44;1.20;;;1.10;;
4200;SDS011;2114;50.398;8.814;2022-09-29T14:05:02;1.13;;;1.10;;
4200;SDS011;2114;50.398;8.814;2022-09-29T14:10:28;0.70;;;0.70;;
4200;SDS011;2114;50.398;8.814;2022-09-29T14:15:35;0.67;;;0.67;;
4200;SDS011;2114;50.398;8.814;2022-09-29T14:20:43;1.10;;;1.00;;
4200;SDS011;2114;50.398;8.814;2022-09-29T14:25:58;0.80;;;0.80;;
4200;SDS011;2114;50.398;8.814;2022-09-29T14:30:59;1.00;;;0.73;;
4200;SDS011;2114;50.398;8.814;2022-09-29T14:36:06;1.00;;;1.00;;
4200;SDS011;2114;50.398;8.814;2022-09-29T14:46:27;0.90;;;0.90;;
4200;SDS011;2114;50.398;8.814;2022-09-29T14:52:03;0.80;;;0.80;;
4200;SDS011;2114;50.398;8.814;2022-09-29T14:57:17;0.90;;;0.90;;
4200;SDS011;2114;50.398;8.814;2022-09-29T15:02:45;0.70;;;0.70;;
4200;SDS011;2114;50.398;8.814;2022-09-29T15:07:48;0.80;;;0.80;;
4200;SDS011;2114;50.398;8.814;2022-09-29T15:12:49;0.70;;;0.70;;
4200;SDS011;2114;50.398;8.814;2022-09-29T15:17:53;0.70;;;0.70;;
4200;SDS011;2114;50.398;8.814;2022-09-29T15:23:07;0.90;;;0.90;;
4200;SDS011;2114;50.398;8.814;2022-09-29T15:28:34;0.80;;;0.80;;
4200;SDS011;2114;50.398;8.814;2022-09-29T15:33:40;0.90;;;0.90;;
4200;SDS011;2114;50.398;8.814;2022-09-29T15:38:42;0.70;;;0.70;;
4200;SDS011;2114;50.398;8.814;2022-09-29T15:49:09;0.90;;;0.90;;
4200;SDS011;2114;50.398;8.814;2022-09-29T15:54:11;0.80;;;0.80;;
4200;SDS011;2114;50.398;8.814;2022-09-29T15:59:19;0.73;;;0.73;;
4200;SDS011;2114;50.398;8.814;2022-09-29T16:04:19;1.20;;;0.87;;
4200;SDS011;2114;50.398;8.814;2022-09-29T16:09:20;0.70;;;0.70;;
4200;SDS011;2114;50.398;8.814;2022-09-29T16:14:21;0.70;;;0.70;;
4200;SDS011;2114;50.398;8.814;2022-09-29T16:19:27;0.93;;;0.93;;
4200;SDS011;2114;50.398;8.814;2022-09-29T16:24:31;1.20;;;1.00;;
4200;SDS011;2114;50.398;8.814;2022-09-29T16:29:34;1.20;;;1.00;;
4200;SDS011;2114;50.398;8.814;2022-09-29T16:34:35;0.97;;;0.93;;
4200;SDS011;2114;50.398;8.814;2022-09-29T16:39:39;0.83;;;0.83;;
4200;SDS011;2114;50.398;8.814;2022-09-29T16:44:43;1.00;;;1.00;;
4200;SDS011;2114;50.398;8.814;2022-09-29T16:54:53;0.80;;;0.80;;
4200;SDS011;2114;50.398;8.814;2022-09-29T17:00:10;1.30;;;1.30;;
4200;SDS011;2114;50.398;8.814;2022-09-29T17:05:11;2.80;;;1.47;;
4200;SDS011;2114;50.398;8.814;2022-09-29T17:10:16;4.93;;;3.20;;
4200;SDS011;2114;50.398;8.814;2022-09-29T17:15:18;2.00;;;1.80;;
4200;SDS011;2114;50.398;8.814;2022-09-29T17:20:21;1.23;;;1.23;;
4200;SDS011;2114;50.398;8.814;2022-09-29T17:25:28;4.43;;;2.70;;
4200;SDS011;2114;50.398;8.814;2022-09-29T17:30:28;6.97;;;3.13;;
4200;SDS011;2114;50.398;8.814;2022-09-29T17:35:30;3.40;;;2.50;;
4200;SDS011;2114;50.398;8.814;2022-09-29T17:40:47;4.57;;;3.00;;
4200;SDS011;2114;50.398;8.814;2022-09-29T17:45:48;8.07;;;4.80;;
4200;SDS011;2114;50.398;8.814;2022-09-29T17:50:50;7.20;;;2.20;;
4200;SDS011;2114;50.398;8.814;2022-09-29T17:55:55;3.37;;;1.50;;
4200;SDS011;2114;50.398;8.814;2022-09-29T18:00:56;4.87;;;3.03;;
4200;SDS011;2114;50.398;8.814;2022-09-29T18:05:57;1.60;;;1.50;;
4200;SDS011;2114;50.398;8.814;2022-09-29T18:10:59;1.10;;;1.10;;
4200;SDS011;2114;50.398;8.814;2022-09-29T18:16:00;0.90;;;0.90;;
4200;SDS011;2114;50.398;8.814;2022-09-29T18:21:01;1.20;;;1.07;;
4200;SDS011;2114;50.398;8.814;2022-09-29T18:26:03;2.20;;;2.00;;
4200;SDS011;2114;50.398;8.814;2022-09-29T18:31:06;2.50;;;1.73;;
4200;SDS011;2114;50.398;8.814;2022-09-29T18:36:10;1.20;;;1.10;;
4200;SDS011;2114;50.398;8.814;2022-09-29T18:41:15;2.70;;;2.20;;
4200;SDS011;2114;50.398;8.814;2022-09-29T18:46:18;2.33;;;2.23;;
4200;SDS011;2114;50.398;8.814;2022-09-29T18:51:19;2.00;;;1.90;;
4200;SDS011;2114;50.398;8.814;2022-09-29T18:56:20;2.50;;;2.30;;
4200;SDS011;2114;50.398;8.814;2022-09-29T19:01:22;3.30;;;2.00;;
4200;SDS011;2114;50.398;8.814;2022-09-29T19:06:26;4.60;;;2.43;;
4200;SDS011;2114;50.398;8.814;2022-09-29T19:11:27;1.20;;;1.20;;
4200;SDS011;2114;50.398;8.814;2022-09-29T19:16:28;1.83;;;1.73;;
4200;SDS011;2114;50.398;8.814;2022-09-29T19:21:30;2.13;;;2.03;;
4200;SDS011;2114;50.398;8.814;2022-09-29T19:26:31;1.63;;;1.43;;
4200;SDS011;2114;50.398;8.814;2022-09-29T19:31:32;4.03;;;1.93;;
4200;SDS011;2114;50.398;8.814;2022-09-29T19:36:33;1.20;;;1.10;;
4200;SDS011;2114;50.398;8.814;2022-09-29T19:41:35;1.27;;;1.20;;
4200;SDS011;2114;50.398;8.814;2022-09-29T19:46:36;1.07;;;1.07;;
4200;SDS011;2114;50.398;8.814;2022-09-29T19:51:37;1.00;;;1.00;;
4200;SDS011;2114;50.398;8.814;2022-09-29T19:56:53;1.43;;;1.00;;
4200;SDS011;2114;50.398;8.814;2022-09-29T20:01:56;0.83;;;0.83;;
4200;SDS011;2114;50.398;8.814;2022-09-29T20:06:58;1.10;;;1.10;;
4200;SDS011;2114;50.398;8.814;2022-09-29T20:12:00;1.37;;;1.03;;
4200;SDS011;2114;50.398;8.814;2022-09-29T20:17:01;6.93;;;1.80;;
4200;SDS011;2114;50.398;8.814;2022-09-29T20:22:01;1.97;;;1.43;;
4200;SDS011;2114;50.398;8.814;2022-09-29T20:27:02;1.43;;;1.33;;
4200;SDS011;2114;50.398;8.814;2022-09-29T20:32:03;1.27;;;1.10;;
4200;SDS011;2114;50.398;8.814;2022-09-29T20:37:04;1.30;;;1.20;;
4200;SDS011;2114;50.398;8.814;2022-09-29T20:42:05;0.90;;;0.90;;
4200;SDS011;2114;50.398;8.814;2022-09-29T20:47:06;0.83;;;0.83;;
4200;SDS011;2114;50.398;8.814;2022-09-29T20:52:06;0.80;;;0.80;;
4200;SDS011;2114;50.398;8.814;2022-09-29T20:57:07;0.80;;;0.80;;
4200;SDS011;2114;50.398;8.814;2022-09-29T21:02:08;0.93;;;0.93;;
4200;SDS011;2114;50.398;8.814;2022-09-29T21:07:11;2.50;;;1.03;;
4200;SDS011;2114;50.398;8.814;2022-09-29T21:12:30;1.13;;;1.13;;
4200;SDS011;2114;50.398;8.814;2022-09-29T21:17:31;2.03;;;1.80;;
4200;SDS011;2114;50.398;8.814;2022-09-29T21:22:32;3.03;;;1.73;;
4200;SDS011;2114;50.398;8.814;2022-09-29T21:27:32;0.90;;;0.90;;
4200;SDS011;2114;50.398;8.814;2022-09-29T21:32:33;1.00;;;1.00;;
4200;SDS011;2114;50.398;8.814;2022-09-29T21:37:33;1.57;;;1.10;;
4200;SDS011;2114;50.398;8.814;2022-09-29T21:42:34;1.10;;;1.03;;
4200;SDS011;2114;50.398;8.814;2022-09-29T21:47:35;1.10;;;1.00;;
4200;SDS011;2114;50.398;8.814;2022-09-29T21:52:54;1.07;;;1.07;;
4200;SDS011;2114;50.398;8.814;2022-09-29T21:57:56;1.17;;;0.90;;
4200;SDS011;2114;50.398;8.814;2022-09-29T22:02:57;1.37;;;1.27;;
4200;SDS011;2114;50.398;8.814;2022-09-29T22:07:58;3.43;;;0.93;;
4200;SDS011;2114;50.398;8.814;2022-09-29T22:12:59;1.10;;;1.10;;
4200;SDS011;2114;50.398;8.814;2022-09-29T22:17:59;2.10;;;1.97;;
4200;SDS011;2114;50.398;8.814;2022-09-29T22:23:00;1.47;;;1.37;;
4200;SDS011;2114;50.398;8.814;2022-09-29T22:28:00;1.20;;;1.10;;
4200;SDS011;2114;50.398;8.814;2022-09-29T22:33:01;1.00;;;1.00;;
4200;SDS011;2114;50.398;8.814;2022-09-29T22:38:02;5.63;;;2.53;;
4200;SDS011;2114;50.398;8.814;2022-09-29T22:43:04;0.90;;;0.90;;
4200;SDS011;2114;50.398;8.814;2022-09-29T22:48:05;1.07;;;1.07;;
4200;SDS011;2114;50.398;8.814;2022-09-29T22:53:07;1.00;;;1.00;;
4200;SDS011;2114;50.398;8.814;2022-09-29T22:58:08;0.90;;;0.90;;
4200;SDS011;2114;50.398;8.814;2022-09-29T23:03:09;1.17;;;1.00;;
4200;SDS011;2114;50.398;8.814;2022-09-29T23:08:10;1.53;;;1.30;;
4200;SDS011;2114;50.398;8.814;2022-09-29T23:13:11;0.80;;;0.80;;
4200;SDS011;2114;50.398;8.814;2022-09-29T23:18:12;1.70;;;1.60;;
4200;SDS011;2114;50.398;8.814;2022-09-29T23:23:12;1.53;;;1.43;;
4200;SDS011;2114;50.398;8.814;2022-09-29T23:28:13;0.87;;;0.87;;
4200;SDS011;2114;50.398;8.814;2022-09-29T23:33:14;1.20;;;1.10;;
4200;SDS011;2114;50.398;8.814;2022-09-29T23:38:14;1.70;;;1.60;;
4200;SDS011;2114;50.398;8.814;2022-09-29T23:43:33;1.50;;;1.40;;
4200;SDS011;2114;50.398;8.814;2022-09-29T23:48:34;2.40;;;1.10;;
4200;SDS011;2114;50.398;8.814;2022-09-29T23:53:34;1.83;;;1.47;;
4200;SDS011;2114;50.398;8.814;2022-09-29T23:58:35;1.50;;;1.40;;
